Impacts METAR Board
IDs:

KLEE - Leesburg Muni, FL, US

Updated at: 1000 UTC 28 Sep 2021
Potential Impact None Slight Moderate High
Time 27/22Z 27/23Z 28/00Z 28/01Z 28/02Z 28/03Z 28/04Z 28/05Z 28/06Z 28/07Z 28/08Z 28/09Z 28/10Z
Temp86 84 81 79 78 76 75 75 73 73 70 69 69
Dewpt62 65 65 65 65 65 66 66 66 65 65 66 66
Altim30.05 30.06 30.07 30.08 30.09 30.10 30.10 30.08 30.06 30.05 30.04 30.04 30.05
VIS10 10 10 10 10 10 10 10 10 10 10 10 10
CIG-- -- -- -- -- -- -- -- -- -- -- -- --
CoverFEWCLRCLRFEWCLRCLRCLRCLRCLRCLRCLRCLRCLR
FltCatVFRVFRVFRVFRVFRVFRVFRVFRVFRVFRVFRVFRVFR
WX--------------------------
WDir809080100100901001109080000
WSpd5 7 8 8 6 4 3 3 3 3 0 0 0
WGst-- -- -- -- -- -- -- -- -- -- -- -- --
Raw hourly METARs
KLEE 272153Z 08005KT 10SM FEW060 30/17 A3005 RMK AO2 SLP175 T03000167
KLEE 272253Z AUTO 09007KT 10SM CLR 29/18 A3006 RMK AO2 SLP177 T02890183
KLEE 272353Z AUTO 08008KT 10SM CLR 27/18 A3007 RMK AO2 SLP180 T02720183 10322 20272 53007
KLEE 280053Z AUTO 10008KT 10SM FEW060 26/18 A3008 RMK AO2 SLP185 T02610183
KLEE 280153Z AUTO 10006KT 10SM CLR 26/18 A3009 RMK AO2 SLP189 T02560183
KLEE 280253Z AUTO 09004KT 10SM CLR 24/18 A3010 RMK AO2 SLP192 T02440183 51013
KLEE 280353Z AUTO 10003KT 10SM CLR 24/19 A3010 RMK AO2 SLP191 T02390189
KLEE 280453Z AUTO 11003KT 10SM CLR 24/19 A3008 RMK AO2 SLP184 T02390189 403220206
KLEE 280553Z AUTO 09003KT 10SM CLR 23/19 A3006 RMK AO2 SLP179 T02280189 10272 20228 58013
KLEE 280653Z AUTO 08003KT 10SM CLR 23/18 A3005 RMK AO2 SLP175 T02280183
KLEE 280753Z AUTO 00000KT 10SM CLR 21/18 A3004 RMK AO2 SLP171 T02110183
KLEE 280853Z AUTO 00000KT 10SM CLR 21/19 A3004 RMK AO2 SLP170 T02060189 56009
KLEE 280953Z AUTO 00000KT 10SM CLR 21/19 A3005 RMK AO2 SLP175 T02060189



Page loaded:  10:03 UTC  |   03:03 AM Pacific  |   04:03 AM Mountain  |   05:03 AM Central  |   06:03 AM Eastern

 

ADVISORIES

FORECASTS

FORECASTS

OBSERVATIONS

USER TOOLS

ABOUT US